Sakaide Maru — 3EYR6 — position and weather

sailwx.info

Track history (hours):
 
Tides and Currents Weather Stations Pressure Air Temp Water Temp Dewpoint Dewpoint Depression Visibility Wind Speed Wind Dir Waves Ship Positions

Sakaide Maru

Last reported at 2016-Apr-27 08:32 UTC. Time now 2016-May-03 10:36 UTC.
Position N 34°01' E 134°57'.

Length 255 m; draft 7.4 m.

Type: Ship. MMSI: 354898000.

Date/timePositionNaut miles runAvg speedWind from/ knotsBaromVisibWave heightAir tempDewpointWater temp
2016-Apr-27 08:32N 34°01' E 134°57'1313.7
2016-Apr-27 07:33N 34°14' E 134°58'1514.5
2016-Apr-27 06:33N 34°28' E 135°04'8 8.5
2016-Apr-27 05:33N 34°37' E 135°02'1313.1
2016-Apr-27 04:32N 34°32' E 134°46'  
2016-Apr-18 01:05N 34°34' E 134°49'811.6
2016-Apr-18 00:25N 34°37' E 134°58'8 8.8
2016-Apr-17 23:33N 34°35' E 135°07'5 5.2
2016-Apr-17 22:33N 34°30' E 135°07'1211.6
2016-Apr-17 21:33N 34°19' E 135°00'1110.8
2016-Apr-17 20:33N 34°09' E 134°60'1110.6
2016-Apr-17 19:30N 33°57' E 134°58'  
Track history (hours):
 
Tides and Currents Weather Stations Pressure Air Temp Water Temp Dewpoint Dewpoint Depression Visibility Wind Speed Wind Dir Waves Ship Positions

Sakaide Maru

Last reported at 2016-Apr-27 08:32 UTC. Time now 2016-May-03 10:36 UTC.
Position N 34°01' E 134°57'.

Length 255 m; draft 7.4 m.

Type: Ship. MMSI: 354898000.

Date/timePositionNaut miles runAvg speedWind from/ knotsBaromVisibWave heightAir tempDewpointWater temp
2016-Apr-27 08:32N 34°01' E 134°57'1313.7
2016-Apr-27 07:33N 34°14' E 134°58'1514.5
2016-Apr-27 06:33N 34°28' E 135°04'8 8.5
2016-Apr-27 05:33N 34°37' E 135°02'1313.1
2016-Apr-27 04:32N 34°32' E 134°46'  
2016-Apr-18 01:05N 34°34' E 134°49'811.6
2016-Apr-18 00:25N 34°37' E 134°58'8 8.8
2016-Apr-17 23:33N 34°35' E 135°07'5 5.2
2016-Apr-17 22:33N 34°30' E 135°07'1211.6
2016-Apr-17 21:33N 34°19' E 135°00'1110.8
2016-Apr-17 20:33N 34°09' E 134°60'1110.6
2016-Apr-17 19:30N 33°57' E 134°58'  

Dump ship's entire track history